sensor_id;sensor_type;location;lat;lon;timestamp;temperature;humidity
4677;DHT22;2352;48.180;11.478;2022-12-16T00:02:25;4.60;99.90
4677;DHT22;2352;48.180;11.478;2022-12-16T00:05:28;4.60;99.90
4677;DHT22;2352;48.180;11.478;2022-12-16T00:08:35;4.60;99.90
4677;DHT22;2352;48.180;11.478;2022-12-16T00:11:38;4.60;99.90
4677;DHT22;2352;48.180;11.478;2022-12-16T00:14:41;4.60;99.90
4677;DHT22;2352;48.180;11.478;2022-12-16T00:17:44;4.60;99.90
4677;DHT22;2352;48.180;11.478;2022-12-16T00:20:48;4.60;99.90
4677;DHT22;2352;48.180;11.478;2022-12-16T00:23:53;4.60;99.90
4677;DHT22;2352;48.180;11.478;2022-12-16T00:26:56;4.60;99.90
4677;DHT22;2352;48.180;11.478;2022-12-16T00:29:59;4.60;99.90
4677;DHT22;2352;48.180;11.478;2022-12-16T00:33:03;4.60;99.90
4677;DHT22;2352;48.180;11.478;2022-12-16T00:36:07;4.60;99.90
4677;DHT22;2352;48.180;11.478;2022-12-16T00:39:11;4.60;99.90
4677;DHT22;2352;48.180;11.478;2022-12-16T00:42:14;4.60;99.90
4677;DHT22;2352;48.180;11.478;2022-12-16T00:45:17;4.70;99.90
4677;DHT22;2352;48.180;11.478;2022-12-16T00:48:21;4.70;99.90
4677;DHT22;2352;48.180;11.478;2022-12-16T00:51:24;4.60;99.90
4677;DHT22;2352;48.180;11.478;2022-12-16T00:54:28;4.70;99.90
4677;DHT22;2352;48.180;11.478;2022-12-16T00:57:31;4.70;99.90
4677;DHT22;2352;48.180;11.478;2022-12-16T01:00:34;4.70;99.90
4677;DHT22;2352;48.180;11.478;2022-12-16T01:03:38;4.70;99.90
4677;DHT22;2352;48.180;11.478;2022-12-16T01:06:41;4.70;99.90
4677;DHT22;2352;48.180;11.478;2022-12-16T01:09:46;4.70;99.90
4677;DHT22;2352;48.180;11.478;2022-12-16T01:12:49;4.70;99.90
4677;DHT22;2352;48.180;11.478;2022-12-16T01:15:52;4.70;99.90
4677;DHT22;2352;48.180;11.478;2022-12-16T01:18:55;4.70;99.90
4677;DHT22;2352;48.180;11.478;2022-12-16T01:21:58;4.70;99.90
4677;DHT22;2352;48.180;11.478;2022-12-16T01:25:02;4.70;99.90
4677;DHT22;2352;48.180;11.478;2022-12-16T01:28:05;4.70;99.90
4677;DHT22;2352;48.180;11.478;2022-12-16T01:31:09;4.70;99.90
4677;DHT22;2352;48.180;11.478;2022-12-16T01:34:13;4.70;99.90
4677;DHT22;2352;48.180;11.478;2022-12-16T01:37:17;4.70;99.90
4677;DHT22;2352;48.180;11.478;2022-12-16T01:40:23;4.70;99.90
4677;DHT22;2352;48.180;11.478;2022-12-16T01:43:28;4.70;99.90
4677;DHT22;2352;48.180;11.478;2022-12-16T01:46:32;4.70;99.90
4677;DHT22;2352;48.180;11.478;2022-12-16T01:49:41;4.70;99.90
4677;DHT22;2352;48.180;11.478;2022-12-16T01:52:49;4.70;99.90
4677;DHT22;2352;48.180;11.478;2022-12-16T01:55:56;4.70;99.90
4677;DHT22;2352;48.180;11.478;2022-12-16T01:59:00;4.60;99.90
4677;DHT22;2352;48.180;11.478;2022-12-16T02:02:04;4.60;99.90
4677;DHT22;2352;48.180;11.478;2022-12-16T02:05:07;4.70;99.90
4677;DHT22;2352;48.180;11.478;2022-12-16T02:08:22;4.70;99.90
4677;DHT22;2352;48.180;11.478;2022-12-16T02:11:40;4.70;99.90
4677;DHT22;2352;48.180;11.478;2022-12-16T02:15:21;4.70;99.90
4677;DHT22;2352;48.180;11.478;2022-12-16T02:18:37;4.70;99.90
4677;DHT22;2352;48.180;11.478;2022-12-16T02:21:47;4.70;99.90
4677;DHT22;2352;48.180;11.478;2022-12-16T02:25:36;4.70;99.90
4677;DHT22;2352;48.180;11.478;2022-12-16T02:29:06;4.70;99.90
4677;DHT22;2352;48.180;11.478;2022-12-16T02:32:22;4.70;99.90
4677;DHT22;2352;48.180;11.478;2022-12-16T02:35:34;4.80;99.90
4677;DHT22;2352;48.180;11.478;2022-12-16T02:38:47;4.80;99.90
4677;DHT22;2352;48.180;11.478;2022-12-16T02:42:01;4.80;99.90
4677;DHT22;2352;48.180;11.478;2022-12-16T02:45:11;4.70;99.90
4677;DHT22;2352;48.180;11.478;2022-12-16T02:48:16;4.70;99.90
4677;DHT22;2352;48.180;11.478;2022-12-16T02:51:20;4.70;99.70
4677;DHT22;2352;48.180;11.478;2022-12-16T02:54:23;4.60;99.60
4677;DHT22;2352;48.180;11.478;2022-12-16T02:57:46;4.50;99.20
4677;DHT22;2352;48.180;11.478;2022-12-16T03:00:59;4.60;99.10
4677;DHT22;2352;48.180;11.478;2022-12-16T03:04:11;4.60;99.10
4677;DHT22;2352;48.180;11.478;2022-12-16T03:07:17;4.50;99.00
4677;DHT22;2352;48.180;11.478;2022-12-16T03:10:26;4.50;98.80
4677;DHT22;2352;48.180;11.478;2022-12-16T03:13:33;4.40;98.70
4677;DHT22;2352;48.180;11.478;2022-12-16T03:16:37;4.30;99.00
4677;DHT22;2352;48.180;11.478;2022-12-16T03:19:44;4.40;98.70
4677;DHT22;2352;48.180;11.478;2022-12-16T03:22:50;4.40;98.70
4677;DHT22;2352;48.180;11.478;2022-12-16T03:25:59;4.40;98.70
4677;DHT22;2352;48.180;11.478;2022-12-16T03:29:08;4.20;98.80
4677;DHT22;2352;48.180;11.478;2022-12-16T03:32:16;4.30;98.40
4677;DHT22;2352;48.180;11.478;2022-12-16T03:35:27;4.20;98.50
4677;DHT22;2352;48.180;11.478;2022-12-16T03:38:32;4.20;98.30
4677;DHT22;2352;48.180;11.478;2022-12-16T03:41:37;4.30;98.60
4677;DHT22;2352;48.180;11.478;2022-12-16T03:44:41;4.30;98.20
4677;DHT22;2352;48.180;11.478;2022-12-16T03:47:48;4.30;98.20
4677;DHT22;2352;48.180;11.478;2022-12-16T03:50:52;4.30;98.10
4677;DHT22;2352;48.180;11.478;2022-12-16T03:53:56;4.20;97.90
4677;DHT22;2352;48.180;11.478;2022-12-16T03:56:59;4.30;98.10
4677;DHT22;2352;48.180;11.478;2022-12-16T04:00:02;4.30;97.90
4677;DHT22;2352;48.180;11.478;2022-12-16T04:03:05;4.20;97.90
4677;DHT22;2352;48.180;11.478;2022-12-16T04:06:10;4.20;98.00
4677;DHT22;2352;48.180;11.478;2022-12-16T04:09:13;4.20;97.70
4677;DHT22;2352;48.180;11.478;2022-12-16T04:12:16;4.10;97.90
4677;DHT22;2352;48.180;11.478;2022-12-16T04:15:37;4.10;98.00
4677;DHT22;2352;48.180;11.478;2022-12-16T04:18:57;4.10;97.70
4677;DHT22;2352;48.180;11.478;2022-12-16T04:22:21;4.10;97.60
4677;DHT22;2352;48.180;11.478;2022-12-16T04:25:43;4.10;97.60
4677;DHT22;2352;48.180;11.478;2022-12-16T04:28:46;4.10;97.40
4677;DHT22;2352;48.180;11.478;2022-12-16T04:31:49;4.20;97.20
4677;DHT22;2352;48.180;11.478;2022-12-16T04:34:52;4.10;97.20
4677;DHT22;2352;48.180;11.478;2022-12-16T04:37:55;4.10;96.90
4677;DHT22;2352;48.180;11.478;2022-12-16T04:41:15;4.00;97.10
4677;DHT22;2352;48.180;11.478;2022-12-16T04:44:35;3.90;97.30
4677;DHT22;2352;48.180;11.478;2022-12-16T04:47:56;3.90;97.20
4677;DHT22;2352;48.180;11.478;2022-12-16T04:51:17;3.90;97.10
4677;DHT22;2352;48.180;11.478;2022-12-16T04:54:38;3.90;97.20
4677;DHT22;2352;48.180;11.478;2022-12-16T04:58:00;4.00;97.20
4677;DHT22;2352;48.180;11.478;2022-12-16T05:01:20;3.90;97.20
4677;DHT22;2352;48.180;11.478;2022-12-16T05:04:55;3.80;97.10
4677;DHT22;2352;48.180;11.478;2022-12-16T05:08:16;3.80;97.30
4677;DHT22;2352;48.180;11.478;2022-12-16T05:11:38;3.70;97.20
4677;DHT22;2352;48.180;11.478;2022-12-16T05:14:58;3.70;97.30
4677;DHT22;2352;48.180;11.478;2022-12-16T05:18:19;3.60;97.50
4677;DHT22;2352;48.180;11.478;2022-12-16T05:21:39;3.60;97.50
4677;DHT22;2352;48.180;11.478;2022-12-16T05:24:59;3.60;97.40
4677;DHT22;2352;48.180;11.478;2022-12-16T05:28:21;3.70;97.40
4677;DHT22;2352;48.180;11.478;2022-12-16T05:31:41;3.70;97.40
4677;DHT22;2352;48.180;11.478;2022-12-16T05:35:02;3.70;97.40
4677;DHT22;2352;48.180;11.478;2022-12-16T05:38:22;3.60;97.30
4677;DHT22;2352;48.180;11.478;2022-12-16T05:41:43;3.70;97.30
4677;DHT22;2352;48.180;11.478;2022-12-16T05:45:05;3.60;97.30
4677;DHT22;2352;48.180;11.478;2022-12-16T05:48:25;3.50;97.70
4677;DHT22;2352;48.180;11.478;2022-12-16T05:51:48;3.50;97.90
4677;DHT22;2352;48.180;11.478;2022-12-16T05:55:09;3.60;97.90
4677;DHT22;2352;48.180;11.478;2022-12-16T05:58:34;3.60;97.80
4677;DHT22;2352;48.180;11.478;2022-12-16T06:01:56;3.60;97.60
4677;DHT22;2352;48.180;11.478;2022-12-16T06:05:17;3.50;97.70
4677;DHT22;2352;48.180;11.478;2022-12-16T06:08:37;3.50;97.70
4677;DHT22;2352;48.180;11.478;2022-12-16T06:11:57;3.50;97.80
4677;DHT22;2352;48.180;11.478;2022-12-16T06:15:18;3.50;97.50
4677;DHT22;2352;48.180;11.478;2022-12-16T06:18:40;3.40;97.70
4677;DHT22;2352;48.180;11.478;2022-12-16T06:22:00;3.40;97.70
4677;DHT22;2352;48.180;11.478;2022-12-16T06:25:20;3.30;97.80
4677;DHT22;2352;48.180;11.478;2022-12-16T06:28:43;3.30;97.80
4677;DHT22;2352;48.180;11.478;2022-12-16T06:32:03;3.30;97.90
4677;DHT22;2352;48.180;11.478;2022-12-16T06:35:25;3.30;98.00
4677;DHT22;2352;48.180;11.478;2022-12-16T06:38:45;3.30;97.90
4677;DHT22;2352;48.180;11.478;2022-12-16T06:42:05;3.30;97.80
4677;DHT22;2352;48.180;11.478;2022-12-16T06:45:26;3.30;97.70
4677;DHT22;2352;48.180;11.478;2022-12-16T06:48:47;3.20;97.80
4677;DHT22;2352;48.180;11.478;2022-12-16T06:52:08;3.30;97.90
4677;DHT22;2352;48.180;11.478;2022-12-16T06:55:29;3.20;98.00
4677;DHT22;2352;48.180;11.478;2022-12-16T06:59:04;3.20;98.00
4677;DHT22;2352;48.180;11.478;2022-12-16T07:02:24;3.20;98.00
4677;DHT22;2352;48.180;11.478;2022-12-16T07:05:45;3.10;98.00
4677;DHT22;2352;48.180;11.478;2022-12-16T07:09:07;3.20;98.00
4677;DHT22;2352;48.180;11.478;2022-12-16T07:12:27;3.20;97.90
4677;DHT22;2352;48.180;11.478;2022-12-16T07:15:56;3.20;97.70
4677;DHT22;2352;48.180;11.478;2022-12-16T07:19:16;3.20;97.80
4677;DHT22;2352;48.180;11.478;2022-12-16T07:22:37;3.30;98.00
4677;DHT22;2352;48.180;11.478;2022-12-16T07:26:14;3.30;98.00
4677;DHT22;2352;48.180;11.478;2022-12-16T07:29:34;3.20;97.90
4677;DHT22;2352;48.180;11.478;2022-12-16T07:33:00;3.20;98.10
4677;DHT22;2352;48.180;11.478;2022-12-16T07:36:21;3.20;98.30
4677;DHT22;2352;48.180;11.478;2022-12-16T07:39:41;3.20;98.20
4677;DHT22;2352;48.180;11.478;2022-12-16T07:43:03;3.20;98.30
4677;DHT22;2352;48.180;11.478;2022-12-16T07:46:23;3.20;98.10
4677;DHT22;2352;48.180;11.478;2022-12-16T07:49:43;3.20;98.20
4677;DHT22;2352;48.180;11.478;2022-12-16T07:53:04;3.10;98.40
4677;DHT22;2352;48.180;11.478;2022-12-16T07:56:31;3.10;98.40
4677;DHT22;2352;48.180;11.478;2022-12-16T07:59:53;3.10;98.40
4677;DHT22;2352;48.180;11.478;2022-12-16T08:03:14;3.10;98.20
4677;DHT22;2352;48.180;11.478;2022-12-16T08:06:35;3.00;98.50
4677;DHT22;2352;48.180;11.478;2022-12-16T08:09:55;3.00;98.40
4677;DHT22;2352;48.180;11.478;2022-12-16T08:13:16;3.00;98.30
4677;DHT22;2352;48.180;11.478;2022-12-16T08:16:46;2.90;98.30
4677;DHT22;2352;48.180;11.478;2022-12-16T08:20:07;3.10;98.30
4677;DHT22;2352;48.180;11.478;2022-12-16T08:23:28;3.10;98.20
4677;DHT22;2352;48.180;11.478;2022-12-16T08:26:50;3.00;98.20
4677;DHT22;2352;48.180;11.478;2022-12-16T08:30:11;3.00;98.10
4677;DHT22;2352;48.180;11.478;2022-12-16T08:33:33;3.00;98.30
4677;DHT22;2352;48.180;11.478;2022-12-16T08:36:53;3.00;98.10
4677;DHT22;2352;48.180;11.478;2022-12-16T08:40:13;3.10;98.40
4677;DHT22;2352;48.180;11.478;2022-12-16T08:43:37;3.10;98.30
4677;DHT22;2352;48.180;11.478;2022-12-16T08:46:57;3.10;98.20
4677;DHT22;2352;48.180;11.478;2022-12-16T08:50:19;3.10;98.20
4677;DHT22;2352;48.180;11.478;2022-12-16T08:53:39;3.20;98.30
4677;DHT22;2352;48.180;11.478;2022-12-16T08:57:00;3.20;98.10
4677;DHT22;2352;48.180;11.478;2022-12-16T09:00:20;3.30;98.30
4677;DHT22;2352;48.180;11.478;2022-12-16T09:03:40;3.30;98.40
4677;DHT22;2352;48.180;11.478;2022-12-16T09:07:02;3.30;98.00
4677;DHT22;2352;48.180;11.478;2022-12-16T09:10:23;3.30;98.20
4677;DHT22;2352;48.180;11.478;2022-12-16T09:13:43;3.30;97.90
4677;DHT22;2352;48.180;11.478;2022-12-16T09:17:04;3.30;98.10
4677;DHT22;2352;48.180;11.478;2022-12-16T09:20:24;3.30;98.10
4677;DHT22;2352;48.180;11.478;2022-12-16T09:23:45;3.30;98.10
4677;DHT22;2352;48.180;11.478;2022-12-16T09:27:06;3.30;98.00
4677;DHT22;2352;48.180;11.478;2022-12-16T09:30:26;3.20;98.00
4677;DHT22;2352;48.180;11.478;2022-12-16T09:33:47;3.10;98.10
4677;DHT22;2352;48.180;11.478;2022-12-16T09:37:07;3.20;97.90
4677;DHT22;2352;48.180;11.478;2022-12-16T09:40:29;3.20;98.20
4677;DHT22;2352;48.180;11.478;2022-12-16T09:43:58;3.30;98.20
4677;DHT22;2352;48.180;11.478;2022-12-16T09:47:27;3.20;98.10
4677;DHT22;2352;48.180;11.478;2022-12-16T09:50:53;3.10;98.20
4677;DHT22;2352;48.180;11.478;2022-12-16T09:54:17;3.20;98.20
4677;DHT22;2352;48.180;11.478;2022-12-16T09:57:41;3.30;98.10
4677;DHT22;2352;48.180;11.478;2022-12-16T10:01:03;3.20;98.00
4677;DHT22;2352;48.180;11.478;2022-12-16T10:04:24;3.20;98.10
4677;DHT22;2352;48.180;11.478;2022-12-16T10:07:55;3.20;98.10
4677;DHT22;2352;48.180;11.478;2022-12-16T10:11:22;3.30;98.00
4677;DHT22;2352;48.180;11.478;2022-12-16T10:14:54;3.30;98.20
4677;DHT22;2352;48.180;11.478;2022-12-16T10:18:34;3.30;98.00
4677;DHT22;2352;48.180;11.478;2022-12-16T10:22:02;3.30;98.00
4677;DHT22;2352;48.180;11.478;2022-12-16T10:25:27;3.30;98.00
4677;DHT22;2352;48.180;11.478;2022-12-16T10:28:51;3.20;97.90
4677;DHT22;2352;48.180;11.478;2022-12-16T10:32:19;3.20;97.80
4677;DHT22;2352;48.180;11.478;2022-12-16T10:35:44;3.20;97.70
4677;DHT22;2352;48.180;11.478;2022-12-16T10:39:16;3.20;97.70
4677;DHT22;2352;48.180;11.478;2022-12-16T10:42:54;3.10;97.80
4677;DHT22;2352;48.180;11.478;2022-12-16T10:46:19;3.10;98.00
4677;DHT22;2352;48.180;11.478;2022-12-16T10:49:44;3.20;97.70
4677;DHT22;2352;48.180;11.478;2022-12-16T10:53:13;3.20;97.90
4677;DHT22;2352;48.180;11.478;2022-12-16T10:56:46;3.20;97.80
4677;DHT22;2352;48.180;11.478;2022-12-16T11:00:13;3.30;97.60
4677;DHT22;2352;48.180;11.478;2022-12-16T11:03:35;3.30;97.60
4677;DHT22;2352;48.180;11.478;2022-12-16T11:06:58;3.30;97.40
4677;DHT22;2352;48.180;11.478;2022-12-16T11:10:27;3.20;97.90
4677;DHT22;2352;48.180;11.478;2022-12-16T11:13:48;3.30;98.30
4677;DHT22;2352;48.180;11.478;2022-12-16T11:17:15;3.10;98.00
4677;DHT22;2352;48.180;11.478;2022-12-16T11:20:36;3.10;98.10
4677;DHT22;2352;48.180;11.478;2022-12-16T11:24:12;3.10;98.00
4677;DHT22;2352;48.180;11.478;2022-12-16T11:27:32;3.20;98.10
4677;DHT22;2352;48.180;11.478;2022-12-16T11:30:54;3.20;97.90
4677;DHT22;2352;48.180;11.478;2022-12-16T11:34:16;3.10;98.10
4677;DHT22;2352;48.180;11.478;2022-12-16T11:37:37;3.00;97.90
4677;DHT22;2352;48.180;11.478;2022-12-16T11:41:01;3.10;98.10
4677;DHT22;2352;48.180;11.478;2022-12-16T11:44:26;3.20;98.30
4677;DHT22;2352;48.180;11.478;2022-12-16T11:47:51;3.20;98.20
4677;DHT22;2352;48.180;11.478;2022-12-16T11:51:14;3.20;98.20
4677;DHT22;2352;48.180;11.478;2022-12-16T11:54:37;3.10;97.90
4677;DHT22;2352;48.180;11.478;2022-12-16T11:58:03;3.10;98.20
4677;DHT22;2352;48.180;11.478;2022-12-16T12:01:27;3.10;98.20
4677;DHT22;2352;48.180;11.478;2022-12-16T12:04:50;3.10;98.20
4677;DHT22;2352;48.180;11.478;2022-12-16T12:08:14;3.10;98.20
4677;DHT22;2352;48.180;11.478;2022-12-16T12:11:42;3.10;98.40
4677;DHT22;2352;48.180;11.478;2022-12-16T12:15:13;3.10;98.10
4677;DHT22;2352;48.180;11.478;2022-12-16T12:18:41;3.10;98.10
4677;DHT22;2352;48.180;11.478;2022-12-16T12:22:08;3.10;98.10
4677;DHT22;2352;48.180;11.478;2022-12-16T12:25:38;3.20;98.30
4677;DHT22;2352;48.180;11.478;2022-12-16T12:29:10;3.20;98.10
4677;DHT22;2352;48.180;11.478;2022-12-16T12:32:41;3.20;98.10
4677;DHT22;2352;48.180;11.478;2022-12-16T12:36:15;3.20;98.20
4677;DHT22;2352;48.180;11.478;2022-12-16T12:39:43;3.20;98.00
4677;DHT22;2352;48.180;11.478;2022-12-16T12:43:14;3.20;98.40
4677;DHT22;2352;48.180;11.478;2022-12-16T12:46:46;3.20;97.80
4677;DHT22;2352;48.180;11.478;2022-12-16T12:50:14;3.30;97.70
4677;DHT22;2352;48.180;11.478;2022-12-16T12:53:43;3.20;97.40
4677;DHT22;2352;48.180;11.478;2022-12-16T12:57:05;3.20;97.50
4677;DHT22;2352;48.180;11.478;2022-12-16T13:00:30;3.20;97.60
4677;DHT22;2352;48.180;11.478;2022-12-16T13:03:57;3.20;97.40
4677;DHT22;2352;48.180;11.478;2022-12-16T13:07:21;3.20;97.50
4677;DHT22;2352;48.180;11.478;2022-12-16T13:10:41;3.30;97.40
4677;DHT22;2352;48.180;11.478;2022-12-16T13:14:51;3.20;97.10
4677;DHT22;2352;48.180;11.478;2022-12-16T13:18:23;3.20;96.80
4677;DHT22;2352;48.180;11.478;2022-12-16T13:21:45;3.20;96.80
4677;DHT22;2352;48.180;11.478;2022-12-16T13:25:32;3.20;96.50
4677;DHT22;2352;48.180;11.478;2022-12-16T13:29:07;3.00;96.70
4677;DHT22;2352;48.180;11.478;2022-12-16T13:32:34;3.00;96.90
4677;DHT22;2352;48.180;11.478;2022-12-16T13:35:57;3.00;97.40
4677;DHT22;2352;48.180;11.478;2022-12-16T13:39:23;2.90;96.50
4677;DHT22;2352;48.180;11.478;2022-12-16T13:42:52;2.80;97.10
4677;DHT22;2352;48.180;11.478;2022-12-16T13:46:15;2.80;97.00
4677;DHT22;2352;48.180;11.478;2022-12-16T13:49:42;2.70;97.00
4677;DHT22;2352;48.180;11.478;2022-12-16T13:53:06;2.70;97.00
4677;DHT22;2352;48.180;11.478;2022-12-16T13:56:33;2.70;97.30
4677;DHT22;2352;48.180;11.478;2022-12-16T13:59:57;2.90;97.00
4677;DHT22;2352;48.180;11.478;2022-12-16T14:03:21;2.80;97.00
4677;DHT22;2352;48.180;11.478;2022-12-16T14:06:43;2.80;97.10
4677;DHT22;2352;48.180;11.478;2022-12-16T14:10:04;2.80;97.00
4677;DHT22;2352;48.180;11.478;2022-12-16T14:13:29;2.90;97.00
4677;DHT22;2352;48.180;11.478;2022-12-16T14:16:56;2.90;97.00
4677;DHT22;2352;48.180;11.478;2022-12-16T14:20:29;2.90;96.90
4677;DHT22;2352;48.180;11.478;2022-12-16T14:23:54;2.90;97.00
4677;DHT22;2352;48.180;11.478;2022-12-16T14:27:17;2.90;97.30
4677;DHT22;2352;48.180;11.478;2022-12-16T14:30:38;2.80;97.20
4677;DHT22;2352;48.180;11.478;2022-12-16T14:34:02;2.90;97.20
4677;DHT22;2352;48.180;11.478;2022-12-16T14:37:32;2.70;97.30
4677;DHT22;2352;48.180;11.478;2022-12-16T14:40:52;2.80;97.20
4677;DHT22;2352;48.180;11.478;2022-12-16T14:44:16;2.70;97.20
4677;DHT22;2352;48.180;11.478;2022-12-16T14:47:39;2.80;97.20
4677;DHT22;2352;48.180;11.478;2022-12-16T14:51:25;2.70;97.20
4677;DHT22;2352;48.180;11.478;2022-12-16T14:54:46;2.70;97.30
4677;DHT22;2352;48.180;11.478;2022-12-16T14:58:09;2.70;97.30
4677;DHT22;2352;48.180;11.478;2022-12-16T15:01:30;2.70;97.10
4677;DHT22;2352;48.180;11.478;2022-12-16T15:04:51;2.70;97.30
4677;DHT22;2352;48.180;11.478;2022-12-16T15:08:13;2.80;97.30
4677;DHT22;2352;48.180;11.478;2022-12-16T15:11:30;2.70;97.20
4677;DHT22;2352;48.180;11.478;2022-12-16T15:14:50;2.80;97.20
4677;DHT22;2352;48.180;11.478;2022-12-16T15:18:16;2.80;97.10
4677;DHT22;2352;48.180;11.478;2022-12-16T15:21:38;2.70;97.10
4677;DHT22;2352;48.180;11.478;2022-12-16T15:25:00;2.70;97.40
4677;DHT22;2352;48.180;11.478;2022-12-16T15:28:37;2.70;97.20
4677;DHT22;2352;48.180;11.478;2022-12-16T15:31:58;2.70;97.40
4677;DHT22;2352;48.180;11.478;2022-12-16T15:35:26;2.70;97.30
4677;DHT22;2352;48.180;11.478;2022-12-16T15:38:48;2.60;97.10
4677;DHT22;2352;48.180;11.478;2022-12-16T15:42:21;2.60;97.00
4677;DHT22;2352;48.180;11.478;2022-12-16T15:45:47;2.50;97.30
4677;DHT22;2352;48.180;11.478;2022-12-16T15:49:17;2.50;97.30
4677;DHT22;2352;48.180;11.478;2022-12-16T15:52:40;2.60;97.40
4677;DHT22;2352;48.180;11.478;2022-12-16T15:56:01;2.60;97.30
4677;DHT22;2352;48.180;11.478;2022-12-16T15:59:26;2.60;97.20
4677;DHT22;2352;48.180;11.478;2022-12-16T16:02:47;2.50;97.40
4677;DHT22;2352;48.180;11.478;2022-12-16T16:06:15;2.60;97.50
4677;DHT22;2352;48.180;11.478;2022-12-16T16:09:38;2.60;97.30
4677;DHT22;2352;48.180;11.478;2022-12-16T16:13:13;2.60;97.40
4677;DHT22;2352;48.180;11.478;2022-12-16T16:16:35;2.70;97.30
4677;DHT22;2352;48.180;11.478;2022-12-16T16:19:56;2.60;97.20
4677;DHT22;2352;48.180;11.478;2022-12-16T16:23:16;2.50;97.40
4677;DHT22;2352;48.180;11.478;2022-12-16T16:26:36;2.50;97.50
4677;DHT22;2352;48.180;11.478;2022-12-16T16:29:57;2.50;97.50
4677;DHT22;2352;48.180;11.478;2022-12-16T16:33:19;2.40;97.60
4677;DHT22;2352;48.180;11.478;2022-12-16T16:36:39;2.50;97.70
4677;DHT22;2352;48.180;11.478;2022-12-16T16:40:00;2.50;97.60
4677;DHT22;2352;48.180;11.478;2022-12-16T16:43:21;2.40;97.70
4677;DHT22;2352;48.180;11.478;2022-12-16T16:46:42;2.40;97.80
4677;DHT22;2352;48.180;11.478;2022-12-16T16:50:05;2.40;97.90
4677;DHT22;2352;48.180;11.478;2022-12-16T16:53:26;2.50;97.70
4677;DHT22;2352;48.180;11.478;2022-12-16T16:56:46;2.50;97.70
4677;DHT22;2352;48.180;11.478;2022-12-16T17:00:09;2.50;97.70
4677;DHT22;2352;48.180;11.478;2022-12-16T17:03:30;2.60;97.80
4677;DHT22;2352;48.180;11.478;2022-12-16T17:06:54;2.60;97.60
4677;DHT22;2352;48.180;11.478;2022-12-16T17:10:15;2.60;97.70
4677;DHT22;2352;48.180;11.478;2022-12-16T17:13:35;2.60;97.70
4677;DHT22;2352;48.180;11.478;2022-12-16T17:16:55;2.60;97.70
4677;DHT22;2352;48.180;11.478;2022-12-16T17:20:16;2.50;97.90
4677;DHT22;2352;48.180;11.478;2022-12-16T17:23:38;2.50;98.00
4677;DHT22;2352;48.180;11.478;2022-12-16T17:27:12;2.40;97.90
4677;DHT22;2352;48.180;11.478;2022-12-16T17:30:32;2.50;98.10
4677;DHT22;2352;48.180;11.478;2022-12-16T17:33:53;2.40;98.00
4677;DHT22;2352;48.180;11.478;2022-12-16T17:37:13;2.50;98.30
4677;DHT22;2352;48.180;11.478;2022-12-16T17:40:35;2.30;98.40
4677;DHT22;2352;48.180;11.478;2022-12-16T17:43:52;2.40;98.40
4677;DHT22;2352;48.180;11.478;2022-12-16T17:47:13;2.50;98.30
4677;DHT22;2352;48.180;11.478;2022-12-16T17:50:33;2.40;98.40
4677;DHT22;2352;48.180;11.478;2022-12-16T17:53:54;2.40;98.50
4677;DHT22;2352;48.180;11.478;2022-12-16T17:57:24;2.40;98.50
4677;DHT22;2352;48.180;11.478;2022-12-16T18:00:45;2.40;98.50
4677;DHT22;2352;48.180;11.478;2022-12-16T18:04:06;2.40;98.70
4677;DHT22;2352;48.180;11.478;2022-12-16T18:07:26;2.40;98.70
4677;DHT22;2352;48.180;11.478;2022-12-16T18:10:50;2.40;98.60
4677;DHT22;2352;48.180;11.478;2022-12-16T18:14:12;2.50;98.60
4677;DHT22;2352;48.180;11.478;2022-12-16T18:17:32;2.40;98.60
4677;DHT22;2352;48.180;11.478;2022-12-16T18:20:53;2.50;98.50
4677;DHT22;2352;48.180;11.478;2022-12-16T18:24:13;2.50;98.50
4677;DHT22;2352;48.180;11.478;2022-12-16T18:27:35;2.40;98.60
4677;DHT22;2352;48.180;11.478;2022-12-16T18:30:57;2.30;98.70
4677;DHT22;2352;48.180;11.478;2022-12-16T18:34:18;2.30;99.00
4677;DHT22;2352;48.180;11.478;2022-12-16T18:37:46;2.40;99.20
4677;DHT22;2352;48.180;11.478;2022-12-16T18:41:13;2.40;98.80
4677;DHT22;2352;48.180;11.478;2022-12-16T18:44:34;2.50;98.70
4677;DHT22;2352;48.180;11.478;2022-12-16T18:48:03;2.40;99.10
4677;DHT22;2352;48.180;11.478;2022-12-16T18:51:23;2.50;98.70
4677;DHT22;2352;48.180;11.478;2022-12-16T18:54:43;2.60;98.40
4677;DHT22;2352;48.180;11.478;2022-12-16T18:58:04;2.60;98.20
4677;DHT22;2352;48.180;11.478;2022-12-16T19:01:44;2.50;98.30
4677;DHT22;2352;48.180;11.478;2022-12-16T19:05:06;2.50;98.20
4677;DHT22;2352;48.180;11.478;2022-12-16T19:08:27;2.50;98.40
4677;DHT22;2352;48.180;11.478;2022-12-16T19:11:48;2.50;98.50
4677;DHT22;2352;48.180;11.478;2022-12-16T19:15:08;2.50;98.30
4677;DHT22;2352;48.180;11.478;2022-12-16T19:18:29;2.50;98.40
4677;DHT22;2352;48.180;11.478;2022-12-16T19:21:51;2.50;98.40
4677;DHT22;2352;48.180;11.478;2022-12-16T19:25:11;2.50;98.20
4677;DHT22;2352;48.180;11.478;2022-12-16T19:28:33;2.50;98.20
4677;DHT22;2352;48.180;11.478;2022-12-16T19:31:56;2.50;98.20
4677;DHT22;2352;48.180;11.478;2022-12-16T19:35:17;2.50;97.50
4677;DHT22;2352;48.180;11.478;2022-12-16T19:38:39;2.40;98.10
4677;DHT22;2352;48.180;11.478;2022-12-16T19:41:59;2.40;98.30
4677;DHT22;2352;48.180;11.478;2022-12-16T19:45:19;2.40;98.20
4677;DHT22;2352;48.180;11.478;2022-12-16T19:48:40;2.40;98.20
4677;DHT22;2352;48.180;11.478;2022-12-16T19:52:01;2.40;98.10
4677;DHT22;2352;48.180;11.478;2022-12-16T19:55:22;2.30;98.20
4677;DHT22;2352;48.180;11.478;2022-12-16T19:58:43;2.30;98.20
4677;DHT22;2352;48.180;11.478;2022-12-16T20:02:05;2.40;98.10
4677;DHT22;2352;48.180;11.478;2022-12-16T20:05:26;2.30;98.20
4677;DHT22;2352;48.180;11.478;2022-12-16T20:08:49;2.30;98.10
4677;DHT22;2352;48.180;11.478;2022-12-16T20:12:11;2.30;98.20
4677;DHT22;2352;48.180;11.478;2022-12-16T20:15:31;2.30;98.10
4677;DHT22;2352;48.180;11.478;2022-12-16T20:18:52;2.30;98.30
4677;DHT22;2352;48.180;11.478;2022-12-16T20:22:12;2.30;98.10
4677;DHT22;2352;48.180;11.478;2022-12-16T20:25:33;2.40;98.00
4677;DHT22;2352;48.180;11.478;2022-12-16T20:29:14;2.20;98.00
4677;DHT22;2352;48.180;11.478;2022-12-16T20:32:35;2.30;98.10
4677;DHT22;2352;48.180;11.478;2022-12-16T20:35:57;2.20;98.10
4677;DHT22;2352;48.180;11.478;2022-12-16T20:39:18;2.20;98.00
4677;DHT22;2352;48.180;11.478;2022-12-16T20:42:39;2.20;98.10
4677;DHT22;2352;48.180;11.478;2022-12-16T20:46:00;2.30;98.00
4677;DHT22;2352;48.180;11.478;2022-12-16T20:49:20;2.30;97.70
4677;DHT22;2352;48.180;11.478;2022-12-16T20:52:41;2.30;97.80
4677;DHT22;2352;48.180;11.478;2022-12-16T20:56:01;2.30;97.70
4677;DHT22;2352;48.180;11.478;2022-12-16T20:59:22;2.40;97.80
4677;DHT22;2352;48.180;11.478;2022-12-16T21:02:43;2.30;97.40
4677;DHT22;2352;48.180;11.478;2022-12-16T21:06:05;2.20;97.70
4677;DHT22;2352;48.180;11.478;2022-12-16T21:09:25;2.20;97.80
4677;DHT22;2352;48.180;11.478;2022-12-16T21:12:45;2.10;97.60
4677;DHT22;2352;48.180;11.478;2022-12-16T21:16:07;2.10;97.60
4677;DHT22;2352;48.180;11.478;2022-12-16T21:19:30;2.20;97.20
4677;DHT22;2352;48.180;11.478;2022-12-16T21:22:59;2.20;97.40
4677;DHT22;2352;48.180;11.478;2022-12-16T21:26:20;2.30;97.20
4677;DHT22;2352;48.180;11.478;2022-12-16T21:29:40;2.30;97.10
4677;DHT22;2352;48.180;11.478;2022-12-16T21:33:01;2.30;97.10
4677;DHT22;2352;48.180;11.478;2022-12-16T21:36:23;2.20;97.10
4677;DHT22;2352;48.180;11.478;2022-12-16T21:39:43;2.30;97.20
4677;DHT22;2352;48.180;11.478;2022-12-16T21:43:04;2.30;97.20
4677;DHT22;2352;48.180;11.478;2022-12-16T21:46:29;2.20;97.30